createdAt,value
2017-07-08T00:00:59.232Z,82.24
2017-07-08T00:01:59.274Z,82.72
2017-07-08T00:02:59.314Z,82.62
2017-07-08T00:03:59.355Z,82.43
2017-07-08T00:04:59.396Z,82.43
2017-07-08T00:05:59.439Z,82.43
2017-07-08T00:06:59.481Z,82.72
2017-07-08T00:07:59.520Z,82.34
2017-07-08T00:08:59.564Z,83.01
2017-07-08T00:09:59.602Z,82.72
2017-07-08T00:10:59.644Z,82.92
2017-07-08T00:11:59.684Z,82.92
2017-07-08T00:12:59.726Z,82.72
2017-07-08T00:13:59.767Z,83.01
2017-07-08T00:14:59.807Z,82.82
2017-07-08T00:15:59.849Z,83.3
2017-07-08T00:16:59.890Z,83.3
2017-07-08T00:17:59.929Z,83.01
2017-07-08T00:18:59.970Z,83.4
2017-07-08T00:20:00.014Z,83.3
2017-07-08T00:21:00.052Z,83.3
2017-07-08T00:22:00.097Z,83.2
2017-07-08T00:23:00.134Z,83.11
2017-07-08T00:24:00.216Z,83.11
2017-07-08T00:25:00.221Z,83.3
2017-07-08T00:26:00.259Z,83.11
2017-07-08T00:27:00.302Z,83.01
2017-07-08T00:28:00.342Z,83.5
2017-07-08T00:29:00.383Z,83.01
2017-07-08T00:30:00.421Z,83.2
2017-07-08T00:31:00.463Z,83.2
2017-07-08T00:32:00.503Z,83.2
2017-07-08T00:33:00.545Z,83.11
2017-07-08T00:34:00.587Z,83.11
2017-07-08T00:35:00.630Z,83.11
2017-07-08T00:36:00.670Z,83.3
2017-07-08T00:37:00.710Z,82.92
2017-07-08T00:38:00.751Z,82.82
2017-07-08T00:39:00.792Z,83.01
2017-07-08T00:40:00.833Z,82.87
2017-07-08T00:41:00.877Z,82.92
2017-07-08T00:42:00.915Z,83.01
2017-07-08T00:43:00.957Z,82.43
2017-07-08T00:44:01.001Z,82.53
2017-07-08T00:45:01.038Z,82.62
2017-07-08T00:46:01.080Z,82.24
2017-07-08T00:47:01.120Z,82.14
2017-07-08T00:48:01.163Z,82.14
2017-07-08T00:49:01.204Z,82.24
2017-07-08T00:50:01.245Z,81.95
2017-07-08T00:51:01.283Z,81.91
2017-07-08T00:52:01.326Z,82.01
2017-07-08T00:53:01.364Z,82.1
2017-07-08T00:54:01.409Z,82.01
2017-07-08T00:55:01.450Z,82.01
2017-07-08T00:56:01.491Z,82.2
2017-07-08T00:57:01.536Z,82.1
2017-07-08T00:58:01.571Z,81.81
2017-07-08T00:59:01.610Z,82.2
2017-07-08T01:00:01.655Z,81.81
2017-07-08T01:01:01.693Z,81.81
2017-07-08T01:02:01.736Z,81.72
2017-07-08T01:03:01.779Z,81.81
2017-07-08T01:04:01.821Z,82.1
2017-07-08T01:05:01.858Z,82.2
2017-07-08T01:06:01.898Z,82.1
2017-07-08T01:07:01.939Z,81.81
2017-07-08T01:08:01.979Z,82.1
2017-07-08T01:09:02.023Z,82.59
2017-07-08T01:10:02.064Z,82.49
2017-07-08T01:11:02.104Z,82.59
2017-07-08T01:12:02.141Z,82.49
2017-07-08T01:13:02.186Z,82.35
2017-07-08T01:14:02.223Z,82.39
2017-07-08T01:15:02.267Z,82.39
2017-07-08T01:16:02.310Z,82.68
2017-07-08T01:17:02.348Z,82.39
2017-07-08T01:18:02.391Z,82.39
2017-07-08T01:19:02.429Z,82.78
2017-07-08T01:20:02.471Z,82.97
2017-07-08T01:21:02.520Z,82.93
2017-07-08T01:22:02.552Z,82.83
2017-07-08T01:23:02.593Z,82.87
2017-07-08T01:24:02.632Z,83.03
2017-07-08T01:25:02.675Z,83.12
2017-07-08T01:26:02.715Z,82.54
2017-07-08T01:27:02.754Z,83.22
2017-07-08T01:28:02.798Z,83.31
2017-07-08T01:29:02.840Z,83.12
2017-07-08T01:30:02.899Z,83.12
2017-07-08T01:31:02.920Z,83.12
2017-07-08T01:32:02.961Z,83.12
2017-07-08T01:33:03.002Z,83.41
2017-07-08T01:34:03.044Z,83.41
2017-07-08T01:35:03.084Z,83.22
2017-07-08T01:36:03.123Z,83.22
2017-07-08T01:37:03.165Z,83.22
2017-07-08T01:38:03.216Z,83.22
2017-07-08T01:39:03.247Z,83.51
2017-07-08T01:40:03.288Z,83.12
2017-07-08T01:41:03.326Z,83.51
2017-07-08T01:42:03.370Z,83.8
2017-07-08T01:43:03.406Z,83.7
2017-07-08T01:44:03.449Z,83.8
2017-07-08T01:45:03.489Z,83.12
2017-07-08T01:46:03.534Z,83.7
2017-07-08T01:47:03.571Z,83.31
2017-07-08T01:48:03.611Z,83.41
2017-07-08T01:49:03.655Z,83.89
2017-07-08T01:50:03.695Z,83.8
2017-07-08T01:51:03.735Z,83.99
2017-07-08T01:52:04.098Z,83.89
2017-07-08T01:53:03.817Z,83.61
2017-07-08T01:54:03.858Z,83.8
2017-07-08T01:55:03.898Z,83.7
2017-07-08T01:56:03.937Z,83.7
2017-07-08T01:57:03.991Z,83.51
2017-07-08T01:58:04.018Z,83.31
2017-07-08T01:59:04.065Z,83.51
2017-07-08T02:00:04.102Z,83.7
2017-07-08T02:01:04.145Z,83.7
2017-07-08T02:02:04.183Z,83.99
2017-07-08T02:03:04.223Z,83.8
2017-07-08T02:04:04.265Z,83.7
2017-07-08T02:05:04.303Z,83.7
2017-07-08T02:06:04.672Z,83.7
2017-07-08T02:07:04.386Z,83.61
2017-07-08T02:08:04.424Z,83.61
2017-07-08T02:09:04.471Z,83.61
2017-07-08T02:10:04.512Z,83.31
2017-07-08T02:11:04.567Z,83.41
2017-07-08T02:12:04.613Z,83.51
2017-07-08T02:13:04.630Z,83.31
2017-07-08T02:14:04.672Z,83.8
2017-07-08T02:15:04.724Z,84.28
2017-07-08T02:16:04.752Z,83.89
2017-07-08T02:17:04.815Z,83.99
2017-07-08T02:18:04.830Z,84.09
2017-07-08T02:19:04.890Z,83.99
2017-07-08T02:20:04.913Z,84.09
2017-07-08T02:21:04.963Z,84.18
2017-07-08T02:22:05.001Z,83.99
2017-07-08T02:23:05.037Z,83.99
2017-07-08T02:24:05.075Z,84.09
2017-07-08T02:25:05.118Z,83.89
2017-07-08T02:26:05.158Z,83.89
2017-07-08T02:27:05.202Z,83.75
2017-07-08T02:28:05.240Z,84.05
2017-07-08T02:29:05.280Z,84.53
2017-07-08T02:30:05.318Z,84.33
2017-07-08T02:31:05.361Z,84.33
2017-07-08T02:32:05.402Z,84.53
2017-07-08T02:33:05.442Z,84.62
2017-07-08T02:34:05.481Z,84.43
2017-07-08T02:35:05.522Z,84.33
2017-07-08T02:36:05.563Z,84.81
2017-07-08T02:37:05.605Z,84.81
2017-07-08T02:38:05.649Z,84.33
2017-07-08T02:39:05.683Z,84.91
2017-07-08T02:40:05.740Z,84.72
2017-07-08T02:41:05.766Z,85
2017-07-08T02:42:05.809Z,84.62
2017-07-08T02:43:05.843Z,84.62
2017-07-08T02:44:05.887Z,84.81
2017-07-08T02:45:05.930Z,84.81
2017-07-08T02:46:05.966Z,84.81
2017-07-08T02:47:06.011Z,84.72
2017-07-08T02:48:06.050Z,84.72
2017-07-08T02:49:06.090Z,85.39
2017-07-08T02:50:06.129Z,84.91
2017-07-08T02:51:06.190Z,85.39
2017-07-08T02:52:06.529Z,85.06
2017-07-08T02:53:06.252Z,85.2
2017-07-08T02:54:06.293Z,85.2
2017-07-08T02:55:06.331Z,85.2
2017-07-08T02:56:06.378Z,84.97
2017-07-08T02:57:06.415Z,85.1
2017-07-08T02:58:06.455Z,85.25
2017-07-08T02:59:06.498Z,85.44
2017-07-08T03:00:06.534Z,85.2
2017-07-08T03:01:06.633Z,85.3
2017-07-08T03:02:06.617Z,85.54
2017-07-08T03:03:06.653Z,85.44
2017-07-08T03:04:06.696Z,85.06
2017-07-08T03:05:06.734Z,85.44
2017-07-08T03:06:06.775Z,85.16
2017-07-08T03:07:06.875Z,85.44
2017-07-08T03:08:06.856Z,85.44
2017-07-08T03:09:06.899Z,85.35
2017-07-08T03:10:06.947Z,85.35
2017-07-08T03:11:06.978Z,85.16
2017-07-08T03:12:07.018Z,85.64
2017-07-08T03:13:07.059Z,85.35
2017-07-08T03:14:07.099Z,85.44
2017-07-08T03:15:07.149Z,85.54
2017-07-08T03:16:07.181Z,85.35
2017-07-08T03:17:07.219Z,85.54
2017-07-08T03:18:07.262Z,85.35
2017-07-08T03:19:07.302Z,85.35
2017-07-08T03:20:07.340Z,84.97
2017-07-08T03:21:07.383Z,85.35
2017-07-08T03:22:07.422Z,85.35
2017-07-08T03:23:07.462Z,85.44
2017-07-08T03:24:07.504Z,85.2
2017-07-08T03:25:07.542Z,85.16
2017-07-08T03:26:07.599Z,85.16
2017-07-08T03:27:07.621Z,85.16
2017-07-08T03:28:07.665Z,85.3
2017-07-08T03:29:07.705Z,85.2
2017-07-08T03:30:07.746Z,85.39
2017-07-08T03:31:07.784Z,84.91
2017-07-08T03:32:07.826Z,85
2017-07-08T03:33:07.866Z,84.81
2017-07-08T03:34:07.904Z,84.62
2017-07-08T03:35:07.947Z,84.43
2017-07-08T03:36:07.991Z,84.72
2017-07-08T03:37:08.029Z,84.81
2017-07-08T03:38:08.069Z,84.81
2017-07-08T03:39:08.108Z,84.91
2017-07-08T03:40:08.151Z,84.72
2017-07-08T03:41:08.190Z,84.76
2017-07-08T03:42:08.231Z,84.18
2017-07-08T03:43:08.273Z,84.56
2017-07-08T03:44:08.311Z,84.09
2017-07-08T03:45:08.360Z,84.09
2017-07-08T03:46:08.390Z,84.09
2017-07-08T03:47:08.438Z,83.7
2017-07-08T03:48:08.478Z,83.89
2017-07-08T03:49:08.514Z,83.61
2017-07-08T03:50:08.559Z,83.8
2017-07-08T03:51:08.597Z,83.89
2017-07-08T03:52:08.634Z,83.41
2017-07-08T03:53:08.676Z,83.7
2017-07-08T03:54:08.719Z,83.8
2017-07-08T03:55:08.757Z,83.51
2017-07-08T03:56:08.799Z,83.61
2017-07-08T03:57:08.840Z,82.93
2017-07-08T03:58:08.880Z,83.12
2017-07-08T03:59:08.923Z,83.16
2017-07-08T04:00:08.962Z,83.36
2017-07-08T04:01:09.004Z,83.64
2017-07-08T04:02:09.044Z,83.74
2017-07-08T04:03:09.083Z,84.03
2017-07-08T04:04:09.127Z,83.69
2017-07-08T04:05:09.166Z,83.98
2017-07-08T04:06:09.209Z,83.34
2017-07-08T04:07:09.250Z,82.57
2017-07-08T04:08:09.288Z,82.13
2017-07-08T04:09:09.335Z,82.03
2017-07-08T04:10:09.374Z,81.01
2017-07-08T04:11:09.411Z,80.24
2017-07-08T04:12:09.457Z,80.08
2017-07-08T04:13:09.495Z,79.5
2017-07-08T04:14:09.537Z,79.6
2017-07-08T04:15:09.583Z,78.96
2017-07-08T04:16:09.624Z,78.29
2017-07-08T04:17:09.668Z,78.13
2017-07-08T04:18:09.707Z,77.17
2017-07-08T04:19:09.749Z,77.17
2017-07-08T04:20:09.793Z,76.68
2017-07-08T04:21:09.832Z,76.78
2017-07-08T04:22:09.874Z,76.24
2017-07-08T04:23:09.916Z,75.85
2017-07-08T04:24:09.961Z,75.75
2017-07-08T04:25:10.002Z,75.4
2017-07-08T04:26:10.046Z,75.02
2017-07-08T04:27:10.094Z,74.76
2017-07-08T04:28:10.129Z,74.28
2017-07-08T04:29:10.177Z,73.25
2017-07-08T04:30:10.216Z,72.18
2017-07-08T04:31:10.263Z,71.64
2017-07-08T04:32:10.303Z,71.25
2017-07-08T04:33:10.347Z,71.15
2017-07-08T04:34:10.391Z,70.37
2017-07-08T04:35:10.432Z,70.57
2017-07-08T04:36:10.475Z,69.89
2017-07-08T04:37:10.516Z,70.12
2017-07-08T04:38:10.560Z,69.89
2017-07-08T04:39:10.605Z,69.15
2017-07-08T04:40:10.646Z,68.02
2017-07-08T04:41:10.693Z,67.34
2017-07-08T04:42:10.734Z,67.02
2017-07-08T04:43:10.780Z,67.69
2017-07-08T04:44:10.823Z,67.4
2017-07-08T04:45:10.866Z,67.95
2017-07-08T04:46:10.912Z,67.66
2017-07-08T04:47:10.951Z,67.53
2017-07-08T04:48:10.997Z,68.02
2017-07-08T04:49:11.042Z,68.21
2017-07-08T04:50:11.084Z,67.63
2017-07-08T04:51:11.129Z,67.92
2017-07-08T04:52:11.169Z,67.05
2017-07-08T04:53:11.216Z,67.24
2017-07-08T04:54:11.258Z,67.82
2017-07-08T04:55:11.298Z,67.95
2017-07-08T04:56:11.345Z,67.37
2017-07-08T04:57:11.389Z,66.99
2017-07-08T04:58:11.432Z,67.18
2017-07-08T04:59:11.474Z,66.69
2017-07-08T05:00:11.516Z,66.79
2017-07-08T05:01:11.561Z,66.89
2017-07-08T05:02:11.601Z,66.89
2017-07-08T05:03:11.646Z,66.89
2017-07-08T05:04:11.691Z,66.89
2017-07-08T05:05:11.733Z,66.3
2017-07-08T05:06:11.778Z,66.99
2017-07-08T05:07:11.819Z,66.75
2017-07-08T05:08:11.867Z,66.56
2017-07-08T05:09:11.908Z,66.89
2017-07-08T05:10:11.966Z,66.47
2017-07-08T05:11:11.997Z,66.99
2017-07-08T05:12:12.039Z,66.6
2017-07-08T05:13:12.085Z,66.5
2017-07-08T05:14:12.128Z,65.85
2017-07-08T05:15:12.173Z,65.66
2017-07-08T05:16:12.214Z,65.47
2017-07-08T05:17:12.260Z,65.37
2017-07-08T05:18:12.305Z,65.37
2017-07-08T05:19:12.347Z,65.85
2017-07-08T05:20:12.391Z,65.37
2017-07-08T05:21:12.436Z,65.66
2017-07-08T05:22:12.479Z,65.75
2017-07-08T05:23:12.521Z,65.27
2017-07-08T05:24:12.567Z,65.08
2017-07-08T05:25:12.611Z,64.98
2017-07-08T05:26:12.656Z,65.56
2017-07-08T05:27:12.697Z,64.78
2017-07-08T05:28:12.740Z,64.78
2017-07-08T05:29:12.784Z,64.98
2017-07-08T05:30:12.833Z,64.78
2017-07-08T05:31:12.873Z,64.5
2017-07-08T05:32:12.920Z,64.78
2017-07-08T05:33:12.962Z,64.65
2017-07-08T05:34:13.007Z,64.65
2017-07-08T05:35:13.050Z,64.65
2017-07-08T05:36:13.095Z,64.65
2017-07-08T05:37:13.140Z,64.47
2017-07-08T05:38:13.181Z,64.65
2017-07-08T05:39:13.277Z,64.65
2017-07-08T05:40:13.271Z,64.75
2017-07-08T05:41:13.313Z,64.65
2017-07-08T05:42:13.353Z,64.75
2017-07-08T05:43:13.399Z,64.56
2017-07-08T05:44:13.445Z,64.4
2017-07-08T05:45:13.489Z,64.5
2017-07-08T05:46:13.532Z,64.3
2017-07-08T05:47:13.578Z,64.07
2017-07-08T05:48:13.619Z,64.27
2017-07-08T05:49:13.662Z,64.17
2017-07-08T05:50:13.709Z,65.82
2017-07-08T05:51:13.753Z,66.6
2017-07-08T05:52:13.799Z,66.63
2017-07-08T05:53:13.838Z,65.72
2017-07-08T05:54:13.887Z,64.88
2017-07-08T05:55:13.929Z,62.81
2017-07-08T05:56:13.975Z,62.29
2017-07-08T05:57:14.020Z,60.49
2017-07-08T05:58:14.066Z,59.38
2017-07-08T05:59:14.114Z,58.53
2017-07-08T06:00:14.156Z,58.2
2017-07-08T06:01:14.217Z,56.6
2017-07-08T06:02:14.253Z,55.67
2017-07-08T06:03:14.298Z,54.33
2017-07-08T06:04:14.345Z,52.69
2017-07-08T06:05:14.395Z,51.86
2017-07-08T06:06:14.445Z,50.81
2017-07-08T06:07:14.495Z,49.95
2017-07-08T06:08:14.539Z,48.77
2017-07-08T06:09:14.590Z,48.21
2017-07-08T06:10:14.637Z,47.34
2017-07-08T06:11:14.688Z,46.97
2017-07-08T06:12:14.742Z,46.19
2017-07-08T06:13:14.789Z,44.73
2017-07-08T06:14:14.838Z,44.17
2017-07-08T06:15:14.885Z,43.48
2017-07-08T06:16:14.938Z,42.59
2017-07-08T06:17:14.991Z,42.79
2017-07-08T06:18:15.040Z,41.71
2017-07-08T06:19:15.091Z,41.8
2017-07-08T06:20:15.141Z,41.43
2017-07-08T06:21:15.190Z,41.04
2017-07-08T06:22:15.242Z,40.27
2017-07-08T06:23:15.294Z,39.7
2017-07-08T06:24:15.343Z,39.5
2017-07-08T06:25:15.398Z,39.32
2017-07-08T06:26:15.447Z,38.73
2017-07-08T06:27:15.494Z,38.43
2017-07-08T06:28:15.557Z,37.47
2017-07-08T06:29:15.601Z,37.57
2017-07-08T06:30:15.653Z,37.15
2017-07-08T06:31:15.701Z,36.88
2017-07-08T06:32:15.757Z,36.98
2017-07-08T06:33:15.807Z,36.8
2017-07-08T06:34:15.859Z,36.3
2017-07-08T06:35:15.914Z,35.53
2017-07-08T06:36:15.962Z,35.15
2017-07-08T06:37:16.229Z,34.88
2017-07-08T06:38:16.076Z,34.2
2017-07-08T06:39:16.122Z,33.42
2017-07-08T06:40:16.175Z,33.94
2017-07-08T06:41:16.226Z,33.06
2017-07-08T06:42:16.281Z,32.78
2017-07-08T06:43:16.337Z,32.09
2017-07-08T06:44:16.390Z,31.69
2017-07-08T06:45:16.441Z,32.07
2017-07-08T06:46:16.497Z,32.06
2017-07-08T06:47:16.549Z,31.65
2017-07-08T06:48:16.599Z,31.65
2017-07-08T06:49:16.653Z,31.73
2017-07-08T06:50:16.703Z,31.91
2017-07-08T06:51:16.759Z,32.19
2017-07-08T06:52:16.811Z,32.28
2017-07-08T06:53:16.864Z,32.47
2017-07-08T06:54:16.919Z,32.09
2017-07-08T06:55:16.974Z,32.09
2017-07-08T06:56:17.022Z,31.9
2017-07-08T06:57:17.076Z,32.07
2017-07-08T06:58:17.127Z,32.29
2017-07-08T06:59:17.183Z,31.99
2017-07-08T07:00:17.235Z,31.6
2017-07-08T07:01:17.287Z,31.5
2017-07-08T07:02:17.341Z,31.5
2017-07-08T07:03:17.395Z,31.5
2017-07-08T07:04:17.446Z,31.59
2017-07-08T07:05:17.514Z,31.96
2017-07-08T07:06:17.552Z,32.14
2017-07-08T07:07:17.600Z,32.23
2017-07-08T07:08:17.653Z,32.41
2017-07-08T07:09:17.704Z,32.8
2017-07-08T07:10:17.759Z,32.8
2017-07-08T07:11:17.811Z,33.08
2017-07-08T07:12:17.859Z,33.28
2017-07-08T07:13:17.914Z,33.65
2017-07-08T07:14:17.960Z,33.15
2017-07-08T07:15:18.016Z,34.1
2017-07-08T07:16:18.064Z,34.99
2017-07-08T07:17:18.117Z,35.36
2017-07-08T07:18:18.168Z,35.36
2017-07-08T07:19:18.217Z,35.54
2017-07-08T07:20:18.270Z,35.91
2017-07-08T07:21:18.318Z,36.6
2017-07-08T07:22:18.367Z,36.98
2017-07-08T07:23:18.414Z,37.17
2017-07-08T07:24:18.468Z,37.54
2017-07-08T07:25:18.516Z,37.43
2017-07-08T07:26:18.561Z,38.29
2017-07-08T07:27:18.613Z,38.67
2017-07-08T07:28:18.659Z,39.23
2017-07-08T07:29:18.710Z,39.51
2017-07-08T07:30:18.756Z,40.37
2017-07-08T07:31:18.805Z,41.33
2017-07-08T07:32:18.857Z,41.31
2017-07-08T07:33:18.899Z,42.07
2017-07-08T07:34:18.953Z,42.65
2017-07-08T07:35:18.997Z,43.22
2017-07-08T07:36:19.044Z,43.51
2017-07-08T07:37:19.091Z,43.37
2017-07-08T07:38:19.136Z,44.54
2017-07-08T07:39:19.183Z,44.93
2017-07-08T07:40:19.234Z,45.61
2017-07-08T07:41:19.278Z,45.51
2017-07-08T07:42:19.323Z,45.42
2017-07-08T07:43:19.371Z,45.71
2017-07-08T07:44:19.417Z,46.61
2017-07-08T07:45:19.466Z,46.41
2017-07-08T07:46:19.511Z,45.46
2017-07-08T07:47:19.561Z,45.75
2017-07-08T07:48:19.605Z,45.75
2017-07-08T07:49:19.654Z,46.04
2017-07-08T07:50:19.700Z,46.02
2017-07-08T07:51:19.759Z,46.41
2017-07-08T07:52:19.798Z,46.02
2017-07-08T07:53:19.844Z,46.31
2017-07-08T07:54:19.890Z,46.8
2017-07-08T07:55:19.941Z,46.7
2017-07-08T07:56:19.985Z,47.31
2017-07-08T07:57:20.035Z,46.75
2017-07-08T07:58:20.084Z,45.9
2017-07-08T07:59:20.129Z,45.62
2017-07-08T08:00:20.178Z,45.53
2017-07-08T08:01:20.226Z,45.55
2017-07-08T08:02:20.270Z,44.91
2017-07-08T08:03:20.320Z,43.85
2017-07-08T08:04:20.368Z,43.19
2017-07-08T08:05:20.421Z,43.29
2017-07-08T08:06:20.469Z,42.45
2017-07-08T08:07:20.516Z,41.66
2017-07-08T08:08:20.573Z,41.25
2017-07-08T08:09:20.615Z,41.84
2017-07-08T08:10:20.665Z,42.31
2017-07-08T08:11:20.715Z,42.6
2017-07-08T08:12:20.763Z,42.31
2017-07-08T08:13:20.811Z,42.43
2017-07-08T08:14:20.868Z,41.66
2017-07-08T08:15:20.909Z,39.92
2017-07-08T08:16:20.961Z,40.21
2017-07-08T08:17:21.013Z,40.29
2017-07-08T08:18:21.075Z,40
2017-07-08T08:19:21.110Z,41.45
2017-07-08T08:20:21.159Z,41.23
2017-07-08T08:21:21.214Z,41.25
2017-07-08T08:22:21.261Z,40.88
2017-07-08T08:23:21.309Z,41.47
2017-07-08T08:24:21.363Z,40.29
2017-07-08T08:25:21.415Z,40.11
2017-07-08T08:26:21.467Z,39.72
2017-07-08T08:27:21.510Z,39.72
2017-07-08T08:28:21.562Z,39.7
2017-07-08T08:29:21.612Z,39.7
2017-07-08T08:30:21.665Z,40.39
2017-07-08T08:31:21.711Z,39.98
2017-07-08T08:32:21.763Z,40
2017-07-08T08:33:21.813Z,39.98
2017-07-08T08:34:21.859Z,40.08
2017-07-08T08:35:21.913Z,40.08
2017-07-08T08:36:21.964Z,39.88
2017-07-08T08:37:22.012Z,40.17
2017-07-08T08:38:22.064Z,40.09
2017-07-08T08:39:22.119Z,39.7
2017-07-08T08:40:22.169Z,39.61
2017-07-08T08:41:22.214Z,40
2017-07-08T08:42:22.262Z,40.39
2017-07-08T08:43:22.316Z,40
2017-07-08T08:44:22.364Z,40.37
2017-07-08T08:45:22.411Z,40.17
2017-07-08T08:46:22.465Z,40.08
2017-07-08T08:47:22.512Z,40.37
2017-07-08T08:48:22.562Z,40.27
2017-07-08T08:49:22.615Z,40.48
2017-07-08T08:50:22.665Z,40.48
2017-07-08T08:51:22.714Z,40.21
2017-07-08T08:52:22.768Z,40.33
2017-07-08T08:53:22.825Z,39.56
2017-07-08T08:54:22.868Z,39.27
2017-07-08T08:55:22.916Z,38.88
2017-07-08T08:56:22.967Z,38.19
2017-07-08T08:57:23.022Z,38.19
2017-07-08T08:58:23.072Z,38.35
2017-07-08T08:59:23.118Z,38.62
2017-07-08T09:00:23.171Z,38.7
2017-07-08T09:01:23.222Z,39.29
2017-07-08T09:02:23.274Z,39.47
2017-07-08T09:03:23.319Z,39.47
2017-07-08T09:04:23.370Z,39.76
2017-07-08T09:05:23.421Z,40.43
2017-07-08T09:06:23.473Z,39.94
2017-07-08T09:07:23.520Z,39.92
2017-07-08T09:08:23.571Z,40.29
2017-07-08T09:09:23.615Z,40.19
2017-07-08T09:10:23.667Z,40.78
2017-07-08T09:11:23.716Z,40.66
2017-07-08T09:12:23.765Z,40.95
2017-07-08T09:13:23.812Z,41.44
2017-07-08T09:14:23.861Z,41.64
2017-07-08T09:15:23.909Z,41.52
2017-07-08T09:16:23.957Z,42.21
2017-07-08T09:17:24.008Z,42.38
2017-07-08T09:18:24.054Z,42.38
2017-07-08T09:19:24.101Z,42.75
2017-07-08T09:20:24.151Z,42.85
2017-07-08T09:21:24.196Z,43.04
2017-07-08T09:22:24.246Z,43.33
2017-07-08T09:23:24.296Z,43.53
2017-07-08T09:24:24.339Z,43.63
2017-07-08T09:25:24.388Z,43.73
2017-07-08T09:26:24.435Z,43.46
2017-07-08T09:27:24.486Z,43.75
2017-07-08T09:28:24.537Z,43.95
2017-07-08T09:29:24.582Z,43.96
2017-07-08T09:30:24.635Z,43.4
2017-07-08T09:31:24.682Z,42.71
2017-07-08T09:32:24.732Z,42.54
2017-07-08T09:33:24.779Z,42.05
2017-07-08T09:34:24.830Z,42.36
2017-07-08T09:35:24.881Z,41.58
2017-07-08T09:36:24.928Z,41.41
2017-07-08T09:37:24.980Z,41.11
2017-07-08T09:38:25.031Z,41.11
2017-07-08T09:39:25.077Z,41.52
2017-07-08T09:40:25.131Z,41.23
2017-07-08T09:41:25.180Z,41.13
2017-07-08T09:42:25.233Z,41.05
2017-07-08T09:43:25.284Z,40.08
2017-07-08T09:44:25.333Z,40.48
2017-07-08T09:45:25.387Z,40.19
2017-07-08T09:46:25.434Z,40.29
2017-07-08T09:47:25.490Z,39.8
2017-07-08T09:48:25.539Z,39.22
2017-07-08T09:49:25.591Z,38.62
2017-07-08T09:50:25.642Z,38.21
2017-07-08T09:51:25.692Z,38.21
2017-07-08T09:52:25.744Z,38.49
2017-07-08T09:53:25.795Z,38.29
2017-07-08T09:54:25.846Z,38.28
2017-07-08T09:55:25.922Z,38.57
2017-07-08T09:56:25.947Z,38.75
2017-07-08T09:57:25.995Z,39.04
2017-07-08T09:58:26.047Z,39.02
2017-07-08T09:59:26.095Z,39.02
2017-07-08T10:00:26.146Z,39.31
2017-07-08T10:01:26.194Z,39.29
2017-07-08T10:02:26.241Z,39.37
2017-07-08T10:03:26.295Z,39.47
2017-07-08T10:04:26.342Z,40.06
2017-07-08T10:05:26.395Z,40.04
2017-07-08T10:06:26.441Z,40.43
2017-07-08T10:07:26.491Z,41.09
2017-07-08T10:08:26.537Z,40.99
2017-07-08T10:09:26.586Z,41.38
2017-07-08T10:10:26.637Z,42.14
2017-07-08T10:11:26.729Z,42.34
2017-07-08T10:12:26.729Z,42.24
2017-07-08T10:13:26.785Z,42.24
2017-07-08T10:14:26.825Z,42.34
2017-07-08T10:15:26.871Z,42.51
2017-07-08T10:16:26.918Z,42.8
2017-07-08T10:17:26.966Z,42.71
2017-07-08T10:18:27.014Z,42.8
2017-07-08T10:19:27.062Z,43.19
2017-07-08T10:20:27.108Z,43
2017-07-08T10:21:27.156Z,43.1
2017-07-08T10:22:27.203Z,43.88
2017-07-08T10:23:27.248Z,43.41
2017-07-08T10:24:27.300Z,43.24
2017-07-08T10:25:27.353Z,43.14
2017-07-08T10:26:27.399Z,43.43
2017-07-08T10:27:27.445Z,43.46
2017-07-08T10:28:27.493Z,43.28
2017-07-08T10:29:27.545Z,43.3
2017-07-08T10:30:27.595Z,43.42
2017-07-08T10:31:27.644Z,42.95
2017-07-08T10:32:27.698Z,42.48
2017-07-08T10:33:27.749Z,41.89
2017-07-08T10:34:27.801Z,41.02
2017-07-08T10:35:27.851Z,41.02
2017-07-08T10:36:27.901Z,40.92
2017-07-08T10:37:27.955Z,40.64
2017-07-08T10:38:28.003Z,40.45
2017-07-08T10:39:28.054Z,40.14
2017-07-08T10:40:28.106Z,40.43
2017-07-08T10:41:28.159Z,40.6
2017-07-08T10:42:28.207Z,40.6
2017-07-08T10:43:28.255Z,40.31
2017-07-08T10:44:28.308Z,40.41
2017-07-08T10:45:28.358Z,40.09
2017-07-08T10:46:28.406Z,39.8
2017-07-08T10:47:28.457Z,39.8
2017-07-08T10:48:28.506Z,40.19
2017-07-08T10:49:28.555Z,40.29
2017-07-08T10:50:28.608Z,39.78
2017-07-08T10:51:28.653Z,39.39
2017-07-08T10:52:28.705Z,40.08
2017-07-08T10:53:28.753Z,39.98
2017-07-08T10:54:28.804Z,39.78
2017-07-08T10:55:28.857Z,40.27
2017-07-08T10:56:28.903Z,39.49
2017-07-08T10:57:28.955Z,39.59
2017-07-08T10:58:29.006Z,39.59
2017-07-08T10:59:29.053Z,39.98
2017-07-08T11:00:29.105Z,39.88
2017-07-08T11:01:29.154Z,40.08
2017-07-08T11:02:29.202Z,40.16
2017-07-08T11:03:29.253Z,40.06
2017-07-08T11:04:29.302Z,39.96
2017-07-08T11:05:29.353Z,39.96
2017-07-08T11:06:29.403Z,39.75
2017-07-08T11:07:29.447Z,40.53
2017-07-08T11:08:29.498Z,40.23
2017-07-08T11:09:29.550Z,40.33
2017-07-08T11:10:29.596Z,40.5
2017-07-08T11:11:29.640Z,40.21
2017-07-08T11:12:29.693Z,41.17
2017-07-08T11:13:29.739Z,40.58
2017-07-08T11:14:29.788Z,40.29
2017-07-08T11:15:29.836Z,40.39
2017-07-08T11:16:29.884Z,41.25
2017-07-08T11:17:29.931Z,40.95
2017-07-08T11:18:29.974Z,40.86
2017-07-08T11:19:30.025Z,41.13
2017-07-08T11:20:30.070Z,40.83
2017-07-08T11:21:30.119Z,41.32
2017-07-08T11:22:30.165Z,42.28
2017-07-08T11:23:30.210Z,42.49
2017-07-08T11:24:30.260Z,42.1
2017-07-08T11:25:30.306Z,42.2
2017-07-08T11:26:30.354Z,42
2017-07-08T11:27:30.398Z,42
2017-07-08T11:28:30.446Z,42.28
2017-07-08T11:29:30.491Z,42.28
2017-07-08T11:30:30.541Z,42.38
2017-07-08T11:31:30.585Z,42.76
2017-07-08T11:32:30.632Z,42.86
2017-07-08T11:33:30.680Z,42.57
2017-07-08T11:34:30.726Z,43.13
2017-07-08T11:35:30.772Z,43.23
2017-07-08T11:36:30.818Z,43.43
2017-07-08T11:37:30.864Z,43.71
2017-07-08T11:38:30.907Z,43.79
2017-07-08T11:39:30.959Z,44.28
2017-07-08T11:40:31.001Z,44.38
2017-07-08T11:41:31.046Z,46.2
2017-07-08T11:42:31.094Z,45.52
2017-07-08T11:43:31.137Z,46.5
2017-07-08T11:44:31.181Z,46.77
2017-07-08T11:45:31.230Z,47.05
2017-07-08T11:46:31.277Z,47.44
2017-07-08T11:47:31.317Z,47.93
2017-07-08T11:48:31.366Z,48.3
2017-07-08T11:49:31.415Z,48.3
2017-07-08T11:50:31.455Z,49.07
2017-07-08T11:51:31.503Z,48.39
2017-07-08T11:52:31.546Z,48.85
2017-07-08T11:53:31.589Z,49.15
2017-07-08T11:54:31.635Z,49.54
2017-07-08T11:55:31.687Z,49.15
2017-07-08T11:56:31.725Z,49.82
2017-07-08T11:57:31.772Z,50.02
2017-07-08T11:58:31.818Z,49.92
2017-07-08T11:59:31.859Z,50.34
2017-07-08T12:00:31.909Z,50.53
2017-07-08T12:01:31.953Z,50.53
2017-07-08T12:02:31.995Z,50.53
2017-07-08T12:03:32.043Z,50.26
2017-07-08T12:04:32.088Z,50.16
2017-07-08T12:05:32.135Z,50.26
2017-07-08T12:06:32.187Z,50.09
2017-07-08T12:07:32.227Z,49.8
2017-07-08T12:08:32.271Z,49.8
2017-07-08T12:09:32.317Z,50.29
2017-07-08T12:10:32.366Z,49.9
2017-07-08T12:11:32.408Z,49.8
2017-07-08T12:12:32.452Z,50.12
2017-07-08T12:13:32.499Z,50.12
2017-07-08T12:14:32.545Z,49.99
2017-07-08T12:15:32.594Z,49.92
2017-07-08T12:16:32.646Z,49.71
2017-07-08T12:17:32.682Z,49.9
2017-07-08T12:18:32.731Z,49.99
2017-07-08T12:19:32.773Z,49.8
2017-07-08T12:20:32.819Z,49.99
2017-07-08T12:21:32.865Z,50.38
2017-07-08T12:22:32.911Z,49.99
2017-07-08T12:23:32.956Z,50.36
2017-07-08T12:24:33.002Z,50.29
2017-07-08T12:25:33.050Z,50.68
2017-07-08T12:26:33.094Z,50.68
2017-07-08T12:27:33.143Z,50.38
2017-07-08T12:28:33.185Z,50.68
2017-07-08T12:29:33.235Z,49.83
2017-07-08T12:30:33.277Z,50.41
2017-07-08T12:31:33.325Z,50.41
2017-07-08T12:32:33.372Z,50.31
2017-07-08T12:33:33.415Z,49.83
2017-07-08T12:34:33.464Z,50.31
2017-07-08T12:35:33.513Z,49.92
2017-07-08T12:36:33.555Z,49.85
2017-07-08T12:37:33.600Z,49.46
2017-07-08T12:38:33.649Z,49.27
2017-07-08T12:39:33.692Z,49.66
2017-07-08T12:40:33.743Z,49.27
2017-07-08T12:41:33.787Z,48.8
2017-07-08T12:42:33.833Z,48.71
2017-07-08T12:43:33.880Z,48.41
2017-07-08T12:44:33.929Z,48.02
2017-07-08T12:45:33.973Z,48.02
2017-07-08T12:46:34.021Z,48.02
2017-07-08T12:47:34.066Z,47.92
2017-07-08T12:48:34.116Z,47.27
2017-07-08T12:49:34.159Z,46.78
2017-07-08T12:50:34.207Z,46.49
2017-07-08T12:51:34.254Z,46.2
2017-07-08T12:52:34.302Z,45.42
2017-07-08T12:53:34.347Z,45.42
2017-07-08T12:54:34.396Z,45.32
2017-07-08T12:55:34.442Z,44.93
2017-07-08T12:56:34.491Z,44.34
2017-07-08T12:57:34.537Z,44.15
2017-07-08T12:58:34.584Z,43.95